createdAt,value
2018-08-17T00:00:24.630Z,15.80
2018-08-17T00:02:52.889Z,15.77
2018-08-17T00:05:21.137Z,20.13
2018-08-17T00:07:49.674Z,15.90
2018-08-17T00:10:17.921Z,17.27
2018-08-17T00:12:46.175Z,18.00
2018-08-17T00:15:14.450Z,14.87
2018-08-17T00:17:42.691Z,18.07
2018-08-17T00:20:10.961Z,18.97
2018-08-17T00:22:39.229Z,16.87
2018-08-17T00:25:07.462Z,16.67
2018-08-17T00:27:35.713Z,18.23
2018-08-17T00:30:04.094Z,18.63
2018-08-17T00:32:32.322Z,18.17
2018-08-17T00:35:00.563Z,17.10
2018-08-17T00:37:28.781Z,18.77
2018-08-17T00:39:57.033Z,17.03
2018-08-17T00:42:25.278Z,18.93
2018-08-17T00:44:53.537Z,16.50
2018-08-17T00:47:21.809Z,17.30
2018-08-17T00:49:50.041Z,19.37
2018-08-17T00:52:18.313Z,20.30
2018-08-17T00:54:46.567Z,14.67
2018-08-17T00:57:14.794Z,19.53
2018-08-17T00:59:43.055Z,17.27
2018-08-17T01:02:11.306Z,22.00
2018-08-17T01:04:39.549Z,18.37
2018-08-17T01:07:07.828Z,18.03
2018-08-17T01:09:36.154Z,17.20
2018-08-17T01:12:04.450Z,17.10
2018-08-17T01:14:32.685Z,14.80
2018-08-17T01:17:00.909Z,18.17
2018-08-17T01:19:29.186Z,16.37
2018-08-17T01:21:57.475Z,18.43
2018-08-17T01:24:25.701Z,17.97
2018-08-17T01:26:53.913Z,17.27
2018-08-17T01:29:22.176Z,17.93
2018-08-17T01:31:50.422Z,18.60
2018-08-17T01:34:18.641Z,15.87
2018-08-17T01:36:46.861Z,20.87
2018-08-17T01:39:15.098Z,19.27
2018-08-17T01:41:43.327Z,18.77
2018-08-17T01:44:11.578Z,14.93
2018-08-17T01:46:39.841Z,20.27
2018-08-17T01:49:08.078Z,20.13
2018-08-17T01:51:36.314Z,17.87
2018-08-17T01:54:04.642Z,18.73
2018-08-17T01:56:32.876Z,21.53
2018-08-17T01:59:01.099Z,18.70
2018-08-17T02:01:29.353Z,19.17
2018-08-17T02:03:57.630Z,18.43
2018-08-17T02:06:25.922Z,20.73
2018-08-17T02:08:54.153Z,16.07
2018-08-17T02:11:22.401Z,20.10
2018-08-17T02:13:50.621Z,19.93
2018-08-17T02:16:18.889Z,18.90
2018-08-17T02:18:47.102Z,19.57
2018-08-17T02:21:15.356Z,20.60
2018-08-17T02:23:43.585Z,18.20
2018-08-17T02:26:11.842Z,18.60
2018-08-17T02:28:40.054Z,20.57
2018-08-17T02:31:08.313Z,20.47
2018-08-17T02:33:36.554Z,21.77
2018-08-17T02:36:03.817Z,19.50
2018-08-17T02:38:32.025Z,21.43
2018-08-17T02:41:00.329Z,22.27
2018-08-17T02:43:28.570Z,27.00
2018-08-17T02:45:56.830Z,22.13
2018-08-17T02:48:25.106Z,22.07
2018-08-17T02:50:53.882Z,21.87
2018-08-17T02:53:22.125Z,22.87
2018-08-17T02:55:50.395Z,23.10
2018-08-17T02:58:18.626Z,22.93
2018-08-17T03:00:46.834Z,22.57
2018-08-17T03:03:15.061Z,23.77
2018-08-17T03:05:43.293Z,24.23
2018-08-17T03:08:11.541Z,24.90
2018-08-17T03:10:39.781Z,22.27
2018-08-17T03:13:08.010Z,21.83
2018-08-17T03:15:36.262Z,24.70
2018-08-17T03:18:04.536Z,20.23
2018-08-17T03:20:32.830Z,21.93
2018-08-17T03:23:01.046Z,22.20
2018-08-17T03:25:29.291Z,26.57
2018-08-17T03:27:57.917Z,29.53
2018-08-17T03:30:26.198Z,24.67
2018-08-17T03:32:54.421Z,28.60
2018-08-17T03:35:22.649Z,29.37
2018-08-17T03:37:50.893Z,28.80
2018-08-17T03:40:19.170Z,27.73
2018-08-17T03:42:47.421Z,26.00
2018-08-17T03:45:15.637Z,29.60
2018-08-17T03:47:43.886Z,31.80
2018-08-17T03:50:12.105Z,29.60
2018-08-17T03:52:40.345Z,28.47
2018-08-17T03:55:08.634Z,30.00
2018-08-17T03:57:36.886Z,28.27
2018-08-17T04:00:05.713Z,32.83
2018-08-17T04:02:33.954Z,28.77
2018-08-17T04:05:02.178Z,34.30
2018-08-17T04:07:30.629Z,25.87
2018-08-17T04:09:58.857Z,25.73
2018-08-17T04:12:27.102Z,28.60
2018-08-17T04:14:55.346Z,27.50
2018-08-17T04:17:23.585Z,29.53
2018-08-17T04:19:51.801Z,28.50
2018-08-17T04:22:20.070Z,34.73
2018-08-17T04:24:48.345Z,28.03
2018-08-17T04:27:16.606Z,32.37
2018-08-17T04:29:44.869Z,26.37
2018-08-17T04:32:13.221Z,30.57
2018-08-17T04:34:41.450Z,26.50
2018-08-17T04:37:09.761Z,27.10
2018-08-17T04:39:37.981Z,26.37
2018-08-17T04:42:06.233Z,27.60
2018-08-17T04:44:34.565Z,24.23
2018-08-17T04:47:02.786Z,25.40
2018-08-17T04:49:31.017Z,21.63
2018-08-17T04:51:59.273Z,26.20
2018-08-17T04:54:31.261Z,23.83
2018-08-17T04:56:59.513Z,24.17
2018-08-17T04:59:27.773Z,23.23
2018-08-17T05:01:56.008Z,22.43
2018-08-17T05:04:24.237Z,22.77
2018-08-17T05:06:52.541Z,25.47
2018-08-17T05:09:20.770Z,22.57
2018-08-17T05:11:49.022Z,25.73
2018-08-17T05:14:17.241Z,20.87
2018-08-17T05:16:45.518Z,22.67
2018-08-17T05:19:13.749Z,22.93
2018-08-17T05:21:42.017Z,22.43
2018-08-17T05:24:10.251Z,19.47
2018-08-17T05:26:38.489Z,18.43
2018-08-17T05:29:06.797Z,20.47
2018-08-17T05:31:35.036Z,20.60
2018-08-17T05:34:03.297Z,21.90
2018-08-17T05:36:31.541Z,17.37
2018-08-17T05:38:59.807Z,19.10
2018-08-17T05:41:28.025Z,18.10
2018-08-17T05:43:56.257Z,18.50
2018-08-17T05:46:24.500Z,19.03
2018-08-17T05:48:52.718Z,17.97
2018-08-17T05:51:20.937Z,18.80
2018-08-17T05:53:49.918Z,21.23
2018-08-17T05:56:18.141Z,18.27
2018-08-17T05:58:46.717Z,19.13
2018-08-17T06:01:14.945Z,15.20
2018-08-17T06:03:43.173Z,16.07
2018-08-17T06:06:17.289Z,17.77
2018-08-17T06:08:45.513Z,16.73
2018-08-17T06:11:13.902Z,17.50
2018-08-17T06:13:42.033Z,12.87
2018-08-17T06:16:10.483Z,13.27
2018-08-17T06:18:38.740Z,15.53
2018-08-17T06:21:06.965Z,15.03
2018-08-17T06:23:35.245Z,11.87
2018-08-17T06:26:03.459Z,11.30
2018-08-17T06:28:31.709Z,10.17
2018-08-17T06:30:59.982Z,9.53
2018-08-17T06:33:28.214Z,10.30
2018-08-17T06:35:56.463Z,7.97
2018-08-17T06:38:24.707Z,7.17
2018-08-17T06:40:52.978Z,9.13
2018-08-17T06:43:21.301Z,10.03
2018-08-17T06:45:49.537Z,7.33
2018-08-17T06:48:17.752Z,8.77
2018-08-17T06:50:46.071Z,9.40
2018-08-17T06:53:14.206Z,12.73
2018-08-17T06:55:42.438Z,13.63
2018-08-17T06:58:10.681Z,10.07
2018-08-17T07:00:38.898Z,10.10
2018-08-17T07:03:07.141Z,10.03
2018-08-17T07:05:35.377Z,10.77
2018-08-17T07:08:03.630Z,10.60
2018-08-17T07:10:31.969Z,11.70
2018-08-17T07:13:00.225Z,12.80
2018-08-17T07:15:28.454Z,9.83
2018-08-17T07:17:56.697Z,9.67
2018-08-17T07:20:24.937Z,14.33
2018-08-17T07:22:53.181Z,14.10
2018-08-17T07:25:21.414Z,11.30
2018-08-17T07:27:49.754Z,12.00
2018-08-17T07:30:17.889Z,10.60
2018-08-17T07:32:46.146Z,14.00
2018-08-17T07:35:14.370Z,12.20
2018-08-17T07:37:42.646Z,9.27
2018-08-17T07:40:10.862Z,8.73
2018-08-17T07:42:57.558Z,11.80
2018-08-17T07:45:25.998Z,11.17
2018-08-17T07:47:54.264Z,10.60
2018-08-17T07:50:22.605Z,10.97
2018-08-17T07:52:51.151Z,10.87
2018-08-17T07:55:19.381Z,10.60
2018-08-17T07:57:47.977Z,9.80
2018-08-17T08:00:18.453Z,9.60
2018-08-17T08:02:46.805Z,8.83
2018-08-17T08:05:15.113Z,13.63
2018-08-17T08:07:43.353Z,11.13
2018-08-17T08:10:12.204Z,9.57
2018-08-17T08:12:40.742Z,11.73
2018-08-17T08:15:10.200Z,9.83
2018-08-17T08:17:38.702Z,9.43
2018-08-17T08:20:18.343Z,11.23
2018-08-17T08:22:46.654Z,11.53
2018-08-17T08:25:14.881Z,10.00
2018-08-17T08:27:43.097Z,11.60
2018-08-17T08:30:11.341Z,13.90
2018-08-17T08:32:39.597Z,10.20
2018-08-17T08:35:08.146Z,11.57
2018-08-17T08:37:36.385Z,11.03
2018-08-17T08:40:05.229Z,12.30
2018-08-17T08:42:33.564Z,9.07
2018-08-17T08:45:01.813Z,11.67
2018-08-17T08:47:30.157Z,10.63
2018-08-17T08:49:58.402Z,10.00
2018-08-17T08:52:28.686Z,10.03
2018-08-17T08:54:56.937Z,11.60
2018-08-17T08:57:30.773Z,11.40
2018-08-17T08:59:58.998Z,10.23
2018-08-17T09:02:27.255Z,10.20
2018-08-17T09:04:55.562Z,12.70
2018-08-17T09:07:23.875Z,14.40
2018-08-17T09:09:52.089Z,12.30
2018-08-17T09:12:20.341Z,10.13
2018-08-17T09:14:48.554Z,10.93
2018-08-17T09:17:16.815Z,11.97
2018-08-17T09:19:45.064Z,15.70
2018-08-17T09:22:13.333Z,10.83
2018-08-17T09:24:46.893Z,13.03
2018-08-17T09:27:15.145Z,13.00
2018-08-17T09:29:43.369Z,10.17
2018-08-17T09:32:11.624Z,11.17
2018-08-17T09:34:39.881Z,12.63
2018-08-17T09:37:08.153Z,10.40
2018-08-17T09:39:40.029Z,13.53
2018-08-17T09:42:08.297Z,10.17
2018-08-17T09:44:36.503Z,7.90
2018-08-17T09:47:04.873Z,6.33
2018-08-17T09:49:33.086Z,7.23
2018-08-17T09:52:01.359Z,6.70
2018-08-17T09:54:29.590Z,4.93
2018-08-17T09:56:57.874Z,5.93
2018-08-17T09:59:26.118Z,6.03
2018-08-17T10:01:59.790Z,4.70
2018-08-17T10:04:33.662Z,4.97
2018-08-17T10:07:07.495Z,4.63
2018-08-17T10:09:42.167Z,4.63
2018-08-17T10:12:10.439Z,4.13
2018-08-17T10:14:38.801Z,3.93
2018-08-17T10:17:07.050Z,6.97
2018-08-17T10:19:35.621Z,4.20
2018-08-17T10:22:04.682Z,6.53
2018-08-17T10:24:32.877Z,7.03
2018-08-17T10:27:01.091Z,5.27
2018-08-17T10:29:29.322Z,6.07
2018-08-17T10:31:58.648Z,7.97
2018-08-17T10:34:26.870Z,8.23
2018-08-17T10:36:55.106Z,9.07
2018-08-17T10:39:23.358Z,9.77
2018-08-17T10:41:51.611Z,10.93
2018-08-17T10:44:19.834Z,9.60
2018-08-17T10:46:48.045Z,9.00
2018-08-17T10:49:16.493Z,9.33
2018-08-17T10:51:44.742Z,10.00
2018-08-17T10:54:12.985Z,11.40
2018-08-17T10:56:41.343Z,11.77
2018-08-17T10:59:09.613Z,9.30
2018-08-17T11:01:42.937Z,8.90
2018-08-17T11:04:14.897Z,11.47
2018-08-17T11:06:49.037Z,12.27
2018-08-17T11:09:17.334Z,13.43
2018-08-17T11:11:45.562Z,16.13
2018-08-17T11:14:13.778Z,14.20
2018-08-17T11:16:42.093Z,16.33
2018-08-17T11:19:10.325Z,16.97
2018-08-17T11:21:38.561Z,15.73
2018-08-17T11:24:06.830Z,13.23
2018-08-17T11:26:35.202Z,12.13
2018-08-17T11:29:03.438Z,11.90
2018-08-17T11:31:31.673Z,12.07
2018-08-17T11:33:59.909Z,12.53
2018-08-17T11:36:28.135Z,12.40
2018-08-17T11:38:56.381Z,13.73
2018-08-17T11:41:24.655Z,13.13
2018-08-17T11:43:56.887Z,12.77
2018-08-17T11:46:25.094Z,12.60
2018-08-17T11:48:53.801Z,12.00
2018-08-17T11:51:22.053Z,14.43
2018-08-17T11:53:50.278Z,12.13
2018-08-17T11:56:18.481Z,10.90
2018-08-17T11:58:46.837Z,11.33
2018-08-17T12:01:26.666Z,10.53
2018-08-17T12:03:54.941Z,11.50
2018-08-17T12:06:23.301Z,11.33
2018-08-17T12:08:51.630Z,12.20
2018-08-17T12:11:19.986Z,9.30
2018-08-17T12:13:48.294Z,12.83
2018-08-17T12:16:16.521Z,14.43
2018-08-17T12:18:44.788Z,12.07
2018-08-17T12:21:13.002Z,12.27
2018-08-17T12:23:41.233Z,12.97
2018-08-17T12:26:09.489Z,12.63
2018-08-17T12:28:37.842Z,10.63
2018-08-17T12:31:08.117Z,10.00
2018-08-17T12:33:36.373Z,9.60
2018-08-17T12:36:04.745Z,10.27
2018-08-17T12:38:32.982Z,8.60
2018-08-17T12:41:01.270Z,10.70
2018-08-17T12:43:32.182Z,9.27
2018-08-17T12:46:00.426Z,10.13
2018-08-17T12:48:28.651Z,10.10
2018-08-17T12:51:02.209Z,11.37
2018-08-17T12:53:31.850Z,14.47
2018-08-17T12:56:01.003Z,11.93
2018-08-17T12:58:29.277Z,12.20
2018-08-17T13:00:57.537Z,13.17
2018-08-17T13:03:25.787Z,11.87
2018-08-17T13:05:54.041Z,12.77
2018-08-17T13:08:22.294Z,15.13
2018-08-17T13:10:50.585Z,13.90
2018-08-17T13:13:18.798Z,11.87
2018-08-17T13:15:52.354Z,14.23
2018-08-17T13:18:24.277Z,14.23
2018-08-17T13:20:52.657Z,12.70
2018-08-17T13:23:21.252Z,16.77
2018-08-17T13:25:49.581Z,17.17
2018-08-17T13:28:17.919Z,15.27
2018-08-17T13:30:46.202Z,16.07
2018-08-17T13:33:14.443Z,14.27
2018-08-17T13:35:42.667Z,14.07
2018-08-17T13:38:10.982Z,13.83
2018-08-17T13:40:39.294Z,12.87
2018-08-17T13:43:07.568Z,13.97
2018-08-17T13:45:35.826Z,13.20
2018-08-17T13:48:04.178Z,14.23
2018-08-17T13:50:32.449Z,14.13
2018-08-17T13:53:00.744Z,14.03
2018-08-17T13:55:29.040Z,14.57
2018-08-17T13:57:57.326Z,13.83
2018-08-17T14:00:25.631Z,14.40
2018-08-17T14:02:53.913Z,16.67
2018-08-17T14:05:22.185Z,14.43
2018-08-17T14:07:50.477Z,15.10
2018-08-17T14:10:18.726Z,14.93
2018-08-17T14:12:46.982Z,15.57
2018-08-17T14:15:15.201Z,14.77
2018-08-17T14:17:43.488Z,13.00
2018-08-17T14:20:14.408Z,14.53
2018-08-17T14:22:42.737Z,13.43
2018-08-17T14:25:11.554Z,14.90
2018-08-17T14:27:39.885Z,13.37
2018-08-17T14:30:11.778Z,16.17
2018-08-17T14:32:40.151Z,14.03
2018-08-17T14:35:08.504Z,15.07
2018-08-17T14:37:36.812Z,18.27
2018-08-17T14:40:05.302Z,16.63
2018-08-17T14:42:33.537Z,16.83
2018-08-17T14:45:01.832Z,14.97
2018-08-17T14:47:30.082Z,15.37
2018-08-17T14:49:58.382Z,14.97
2018-08-17T14:52:26.619Z,17.13
2018-08-17T14:54:54.901Z,12.10
2018-08-17T14:57:23.264Z,14.83
2018-08-17T14:59:51.506Z,15.77
2018-08-17T15:02:19.776Z,14.77
2018-08-17T15:04:48.061Z,15.60
2018-08-17T15:07:16.300Z,16.20
2018-08-17T15:09:44.547Z,14.60
2018-08-17T15:12:12.786Z,14.47
2018-08-17T15:14:41.049Z,12.27
2018-08-17T15:17:09.397Z,13.23
2018-08-17T15:19:37.722Z,11.67
2018-08-17T15:22:06.041Z,12.77
2018-08-17T15:24:34.666Z,11.93
2018-08-17T15:27:02.918Z,11.13
2018-08-17T15:29:31.167Z,13.47
2018-08-17T15:32:00.523Z,12.13
2018-08-17T15:34:28.749Z,10.37
2018-08-17T15:36:57.054Z,11.40
2018-08-17T15:39:25.279Z,12.90
2018-08-17T15:41:53.550Z,9.77
2018-08-17T15:44:24.765Z,10.77
2018-08-17T15:46:53.493Z,10.37
2018-08-17T15:49:27.085Z,14.10
2018-08-17T15:51:55.384Z,12.03
2018-08-17T15:54:23.586Z,9.43
2018-08-17T15:56:51.898Z,12.03
2018-08-17T15:59:20.378Z,11.40
2018-08-17T16:01:48.749Z,14.10
2018-08-17T16:04:17.173Z,11.40
2018-08-17T16:06:49.193Z,11.73
2018-08-17T16:09:17.508Z,7.60
2018-08-17T16:11:45.777Z,9.17
2018-08-17T16:14:14.094Z,10.23
2018-08-17T16:16:42.355Z,9.17
2018-08-17T16:19:10.590Z,10.97
2018-08-17T16:21:38.869Z,8.07
2018-08-17T16:24:07.404Z,8.73
2018-08-17T16:26:35.930Z,12.90
2018-08-17T16:29:04.612Z,11.17
2018-08-17T16:31:39.854Z,11.53
2018-08-17T16:34:08.882Z,11.10
2018-08-17T16:36:38.633Z,11.10
2018-08-17T16:39:15.360Z,9.00
2018-08-17T16:41:43.798Z,10.13
2018-08-17T16:44:12.570Z,11.93
2018-08-17T16:46:41.856Z,10.63
2018-08-17T16:49:10.117Z,9.63
2018-08-17T16:51:38.882Z,10.07
2018-08-17T16:54:07.211Z,10.93
2018-08-17T16:56:35.718Z,11.03
2018-08-17T16:59:04.075Z,10.90
2018-08-17T17:01:32.384Z,9.67
2018-08-17T17:04:00.657Z,8.17
2018-08-17T17:06:28.917Z,8.17
2018-08-17T17:09:01.629Z,7.57
2018-08-17T17:11:30.158Z,9.63
2018-08-17T17:13:58.382Z,8.57
2018-08-17T17:16:34.581Z,7.43
2018-08-17T17:19:02.871Z,8.63
2018-08-17T17:21:31.118Z,11.57
2018-08-17T17:23:59.653Z,10.37
2018-08-17T17:26:27.889Z,10.53
2018-08-17T17:28:56.157Z,9.63
2018-08-17T17:31:24.398Z,11.57
2018-08-17T17:33:52.678Z,8.87
2018-08-17T17:36:20.901Z,11.70
2018-08-17T17:38:49.222Z,12.40
2018-08-17T17:41:17.510Z,9.77
2018-08-17T17:43:45.778Z,7.87
2018-08-17T17:46:14.009Z,9.23
2018-08-17T17:48:42.261Z,9.73
2018-08-17T17:51:10.490Z,6.13
2018-08-17T17:53:38.754Z,9.17
2018-08-17T17:56:06.997Z,10.80
2018-08-17T17:58:35.211Z,8.07
2018-08-17T18:01:07.385Z,7.83
2018-08-17T18:03:35.641Z,9.97
2018-08-17T18:06:06.649Z,6.03
2018-08-17T18:08:34.889Z,8.87
2018-08-17T18:11:03.149Z,10.80
2018-08-17T18:13:31.426Z,11.97
2018-08-17T18:15:59.681Z,10.17
2018-08-17T18:18:27.925Z,6.30
2018-08-17T18:20:56.175Z,6.70
2018-08-17T18:23:24.469Z,10.13
2018-08-17T18:25:52.697Z,7.13
2018-08-17T18:28:20.973Z,8.20
2018-08-17T18:30:49.242Z,7.43
2018-08-17T18:33:17.460Z,11.40
2018-08-17T18:35:45.681Z,8.77
2018-08-17T18:38:14.110Z,8.17
2018-08-17T18:40:42.313Z,6.03
2018-08-17T18:43:10.921Z,10.60
2018-08-17T18:45:39.169Z,7.17
2018-08-17T18:48:07.549Z,7.77
2018-08-17T18:50:35.811Z,8.37
2018-08-17T18:53:04.070Z,8.77
2018-08-17T18:55:32.321Z,7.23
2018-08-17T18:58:00.645Z,6.27
2018-08-17T19:00:28.913Z,8.27
2018-08-17T19:02:57.133Z,8.30
2018-08-17T19:05:25.375Z,6.67
2018-08-17T19:07:53.593Z,9.20
2018-08-17T19:10:21.848Z,7.93
2018-08-17T19:12:50.072Z,7.63
2018-08-17T19:15:18.318Z,7.67
2018-08-17T19:17:46.574Z,8.40
2018-08-17T19:20:14.835Z,9.13
2018-08-17T19:22:45.077Z,8.13
2018-08-17T19:25:14.509Z,6.63
2018-08-17T19:27:43.306Z,6.67
2018-08-17T19:30:19.394Z,7.53
2018-08-17T19:32:47.785Z,8.47
2018-08-17T19:35:16.351Z,9.57
2018-08-17T19:37:44.681Z,7.43
2018-08-17T19:40:12.921Z,9.33
2018-08-17T19:42:41.193Z,8.67
2018-08-17T19:45:09.414Z,5.67
2018-08-17T19:47:37.621Z,6.47
2018-08-17T19:50:05.989Z,8.47
2018-08-17T19:52:34.097Z,8.60
2018-08-17T19:55:02.317Z,7.77
2018-08-17T19:57:30.550Z,7.47
2018-08-17T19:59:58.765Z,11.47
2018-08-17T20:02:26.997Z,6.03
2018-08-17T20:04:55.203Z,9.23
2018-08-17T20:07:23.437Z,6.33
2018-08-17T20:09:51.670Z,8.00
2018-08-17T20:12:19.914Z,8.77
2018-08-17T20:14:48.145Z,11.77
2018-08-17T20:17:15.384Z,12.73
2018-08-17T20:19:47.698Z,10.60
2018-08-17T20:22:19.285Z,9.13
2018-08-17T20:24:47.813Z,10.10
2018-08-17T20:27:16.483Z,7.90
2018-08-17T20:29:44.961Z,8.00
2018-08-17T20:32:13.217Z,9.87
2018-08-17T20:34:42.506Z,8.70
2018-08-17T20:37:11.662Z,11.23
2018-08-17T20:39:41.178Z,6.87
2018-08-17T20:42:09.589Z,7.80
2018-08-17T20:44:37.874Z,9.57
2018-08-17T20:47:06.294Z,8.23
2018-08-17T20:49:34.542Z,9.13
2018-08-17T20:52:03.813Z,9.57
2018-08-17T20:54:32.447Z,8.97
2018-08-17T20:57:01.369Z,6.70
2018-08-17T20:59:30.524Z,7.73
2018-08-17T21:01:59.151Z,8.80
2018-08-17T21:04:27.398Z,9.00
2018-08-17T21:06:55.621Z,10.07
2018-08-17T21:09:23.850Z,10.40
2018-08-17T21:11:52.081Z,8.97
2018-08-17T21:14:20.321Z,9.47
2018-08-17T21:16:48.545Z,11.13
2018-08-17T21:19:17.274Z,10.60
2018-08-17T21:21:45.538Z,9.70
2018-08-17T21:24:13.718Z,10.17
2018-08-17T21:26:41.953Z,12.07
2018-08-17T21:29:10.214Z,9.97
2018-08-17T21:31:38.450Z,9.17
2018-08-17T21:34:06.701Z,8.90
2018-08-17T21:36:35.292Z,9.17
2018-08-17T21:39:12.686Z,10.93
2018-08-17T21:41:42.945Z,11.37
2018-08-17T21:44:13.719Z,10.30
2018-08-17T21:47:05.305Z,9.10
2018-08-17T21:49:34.293Z,8.93
2018-08-17T21:52:09.378Z,10.37
2018-08-17T21:54:37.651Z,8.93
2018-08-17T21:57:05.961Z,9.37
2018-08-17T22:00:04.870Z,8.93
2018-08-17T22:02:33.238Z,8.90
2018-08-17T22:05:01.619Z,8.20
2018-08-17T22:07:31.518Z,10.37
2018-08-17T22:09:59.698Z,10.03
2018-08-17T22:12:28.024Z,10.83
2018-08-17T22:14:56.162Z,14.93
2018-08-17T22:17:33.791Z,12.23
2018-08-17T22:20:02.345Z,15.17
2018-08-17T22:22:30.597Z,13.83
2018-08-17T22:24:59.631Z,24.50
2018-08-17T22:27:28.869Z,16.40
2018-08-17T22:29:59.148Z,14.70
2018-08-17T22:32:27.360Z,11.57
2018-08-17T22:34:55.874Z,14.63
2018-08-17T22:37:24.117Z,15.13
2018-08-17T22:39:52.354Z,13.57
2018-08-17T22:42:22.037Z,13.93
2018-08-17T22:44:50.720Z,13.13
2018-08-17T22:47:24.501Z,13.57
2018-08-17T22:49:53.538Z,10.13
2018-08-17T22:52:21.773Z,14.90
2018-08-17T22:54:55.501Z,11.53
2018-08-17T22:57:23.789Z,12.13
2018-08-17T23:00:07.623Z,8.00
2018-08-17T23:02:35.845Z,10.13
2018-08-17T23:05:04.638Z,11.70
2018-08-17T23:07:32.901Z,12.13
2018-08-17T23:10:01.130Z,10.17
2018-08-17T23:12:29.369Z,9.83
2018-08-17T23:14:57.618Z,10.13
2018-08-17T23:17:25.883Z,10.27
2018-08-17T23:19:54.093Z,12.30
2018-08-17T23:22:22.322Z,11.20
2018-08-17T23:24:50.574Z,10.50
2018-08-17T23:27:19.042Z,10.93
2018-08-17T23:29:47.349Z,10.33
2018-08-17T23:32:15.577Z,9.10
2018-08-17T23:34:43.802Z,9.17
2018-08-17T23:37:12.073Z,12.13
2018-08-17T23:39:40.297Z,11.23
2018-08-17T23:42:08.578Z,11.93
2018-08-17T23:44:36.810Z,9.17
2018-08-17T23:47:05.277Z,7.20
2018-08-17T23:49:33.522Z,10.77
2018-08-17T23:52:01.966Z,8.87
2018-08-17T23:54:30.199Z,12.27
2018-08-17T23:56:58.453Z,8.47
2018-08-17T23:59:27.324Z,8.93
